RCTP/TPE METAR and TAF weather

Enter ICAO airport designator
Station Type Date Time Source
RCTP METAR 2019/10/14 05:30 UTC NOAA

RCTP 140530Z 05023KT 9999 FEW015 SCT040 26/18 Q1019 WS R05L NOSIG RMK A3009


Station Type Date Time Source
RCTP Decoded METAR 2019/10/14 05:30 UTC NOAA

Chiang Kai Shek, Taiwan (RCTP) 25-05N 121-13E
Oct 14, 2019 - 01:30 AM EDT / 2019.10.14 0530 UTC
Wind: from the NE (050 degrees) at 26 MPH (23 KT):0
Visibility: greater than 7 mile(s):0
Sky conditions: partly cloudy
Temperature: 78 F (26 C)
Dew Point: 64 F (18 C)
Relative Humidity: 61%
Pressure (altimeter): 30.09 in. Hg (1019 hPa)
ob: RCTP 140530Z 05023KT 9999 FEW015 SCT040 26/18 Q1019 WS R05L NOSIG RMK A3009
cycle: 5

Station Type Date Time Source
RCTP TAF 2019/10/14 06:03 UTC NOAA

TAF RCTP 140500Z 1406/1512 05020KT 9999 FEW015 BKN032
TEMPO 1406/1412 07028KT
TEMPO 1418/1424 09013KT FEW010 BKN016 BKN035
BECMG 1501/1503 03025KT

Example: see airport list